TimeCDT,TemperatureF,Dew PointF,Humidity,Sea Level PressureIn,VisibilityMPH,Wind Direction,Wind SpeedMPH,Gust SpeedMPH,PrecipitationIn,Events,Conditions,WindDirDegrees,DateUTC
12:53 AM,59.0,57.9,96,30.01,10.0,Calm,Calm,-,N/A,,Clear,0,2013-06-02 05:53:00
1:53 AM,60.1,55.9,86,30.02,10.0,Calm,Calm,-,N/A,,Clear,0,2013-06-02 06:53:00
2:53 AM,57.9,55.0,90,30.02,10.0,Calm,Calm,-,N/A,,Clear,0,2013-06-02 07:53:00
3:53 AM,57.0,54.0,89,30.03,10.0,Calm,Calm,-,N/A,,Clear,0,2013-06-02 08:53:00
4:53 AM,55.0,53.1,93,30.04,10.0,Calm,Calm,-,N/A,,Clear,0,2013-06-02 09:53:00
5:53 AM,55.0,51.1,86,30.05,10.0,Calm,Calm,-,N/A,,Clear,0,2013-06-02 10:53:00
6:53 AM,55.9,52.0,87,30.07,10.0,Calm,Calm,-,N/A,,Clear,0,2013-06-02 11:53:00
7:53 AM,60.1,54.0,80,30.07,10.0,Variable,4.6,-,N/A,,Clear,0,2013-06-02 12:53:00
8:53 AM,63.0,54.0,72,30.08,10.0,North,5.8,16.1,N/A,,Clear,360,2013-06-02 13:53:00
9:53 AM,64.9,54.0,68,30.09,10.0,NNE,11.5,16.1,N/A,,Partly Cloudy,20,2013-06-02 14:53:00
10:53 AM,66.0,54.0,65,30.10,10.0,North,9.2,-,N/A,,Mostly Cloudy,10,2013-06-02 15:53:00
11:53 AM,66.0,54.0,65,30.10,10.0,Variable,5.8,-,N/A,,Overcast,0,2013-06-02 16:53:00
12:53 PM,66.0,55.0,68,30.10,10.0,North,5.8,-,N/A,,Overcast,10,2013-06-02 17:53:00
1:09 PM,66.2,55.4,68,30.12,10.0,Variable,4.6,-,N/A,,Overcast,0,2013-06-02 18:09:00
1:18 PM,66.2,55.4,68,30.12,10.0,Variable,4.6,-,N/A,,Overcast,0,2013-06-02 18:18:00
1:53 PM,64.9,54.0,68,30.09,10.0,Calm,Calm,-,N/A,,Overcast,0,2013-06-02 18:53:00
2:53 PM,66.0,55.0,68,30.08,10.0,Variable,4.6,-,N/A,,Overcast,0,2013-06-02 19:53:00
3:53 PM,66.0,55.0,68,30.06,10.0,North,9.2,-,N/A,,Overcast,10,2013-06-02 20:53:00
4:10 PM,66.2,55.4,68,30.08,10.0,NNE,12.7,-,N/A,,Overcast,20,2013-06-02 21:10:00
4:53 PM,66.9,55.0,66,30.05,10.0,NE,6.9,-,N/A,,Mostly Cloudy,50,2013-06-02 21:53:00
5:21 PM,66.2,55.4,68,30.05,10.0,Variable,4.6,-,N/A,,Scattered Clouds,0,2013-06-02 22:21:00
5:53 PM,68.0,55.0,63,30.03,10.0,NE,8.1,-,N/A,,Partly Cloudy,40,2013-06-02 22:53:00
6:53 PM,66.9,54.0,63,30.03,10.0,East,4.6,-,N/A,,Scattered Clouds,90,2013-06-02 23:53:00
7:53 PM,63.0,54.0,72,30.02,10.0,East,4.6,-,N/A,,Scattered Clouds,90,2013-06-03 00:53:00
8:53 PM,59.0,54.0,83,30.01,10.0,East,4.6,-,N/A,,Clear,80,2013-06-03 01:53:00
9:53 PM,55.0,54.0,96,30.03,10.0,Calm,Calm,-,N/A,,Clear,0,2013-06-03 02:53:00
10:53 PM,53.1,53.1,100,30.04,10.0,Calm,Calm,-,N/A,,Clear,0,2013-06-03 03:53:00
11:13 PM,51.8,51.8,100,30.06,2.5,Calm,Calm,-,N/A,,Clear,0,2013-06-03 04:13:00
11:20 PM,51.8,51.8,100,30.06,10.0,Calm,Calm,-,N/A,,Clear,0,2013-06-03 04:20:00
11:53 PM,51.1,51.1,100,30.04,10.0,Calm,Calm,-,N/A,,Clear,0,2013-06-03 04:53:00